createdAt,value
2022-11-14T00:00:54.590Z,27.52
2022-11-14T00:03:21.214Z,23.92
2022-11-14T00:05:47.914Z,29.08
2022-11-14T00:08:23.094Z,33.25
2022-11-14T00:10:51.202Z,29.15
2022-11-14T00:13:19.508Z,23.52
2022-11-14T00:15:50.360Z,21.52
2022-11-14T00:18:17.865Z,22.40
2022-11-14T00:20:48.718Z,23.13
2022-11-14T00:23:15.614Z,28.23
2022-11-14T00:25:44.519Z,27.63
2022-11-14T00:28:11.355Z,21.35
2022-11-14T00:30:38.005Z,22.20
2022-11-14T00:33:04.635Z,35.47
2022-11-14T00:35:31.250Z,22.38
2022-11-14T00:37:57.922Z,24.95
2022-11-14T00:40:24.531Z,20.73
2022-11-14T00:42:51.187Z,35.03
2022-11-14T00:45:17.896Z,22.27
2022-11-14T00:47:44.483Z,22.20
2022-11-14T00:50:11.305Z,23.48
2022-11-14T00:52:37.967Z,29.40
2022-11-14T00:55:05.433Z,21.42
2022-11-14T00:57:32.158Z,22.88
2022-11-14T00:59:58.770Z,22.23
2022-11-14T01:02:25.415Z,20.75
2022-11-14T01:04:52.033Z,36.60
2022-11-14T01:07:18.774Z,27.80
2022-11-14T01:09:45.357Z,18.33
2022-11-14T01:12:12.037Z,18.60
2022-11-14T01:14:40.638Z,20.55
2022-11-14T01:17:07.680Z,24.60
2022-11-14T01:19:34.445Z,18.38
2022-11-14T01:22:05.850Z,22.90
2022-11-14T01:24:33.828Z,19.88
2022-11-14T01:27:00.667Z,24.08
2022-11-14T01:29:27.383Z,23.55
2022-11-14T01:31:54.046Z,19.13
2022-11-14T01:34:20.687Z,17.73
2022-11-14T01:36:47.269Z,18.58
2022-11-14T01:39:13.878Z,30.60
2022-11-14T01:41:40.465Z,20.40
2022-11-14T01:44:37.559Z,20.38
2022-11-14T01:47:05.040Z,17.60
2022-11-14T01:49:44.090Z,21.38
2022-11-14T01:52:14.378Z,20.35
2022-11-14T01:54:48.825Z,21.27
2022-11-14T01:57:20.237Z,17.83
2022-11-14T01:59:52.829Z,20.52
2022-11-14T02:02:22.871Z,29.85
2022-11-14T02:04:55.656Z,16.45
2022-11-14T02:07:24.371Z,24.67
2022-11-14T02:09:51.754Z,23.02
2022-11-14T02:12:19.845Z,15.02
2022-11-14T02:14:49.753Z,30.27
2022-11-14T02:17:33.188Z,22.67
2022-11-14T02:20:10.385Z,18.50
2022-11-14T02:22:38.691Z,28.77
2022-11-14T02:25:06.617Z,21.50
2022-11-14T02:27:33.849Z,21.58
2022-11-14T02:30:22.462Z,22.05
2022-11-14T02:35:35.753Z,26.08
2022-11-14T02:38:02.335Z,30.50
2022-11-14T02:40:28.889Z,24.15
2022-11-14T02:42:55.465Z,21.65
2022-11-14T02:45:22.329Z,23.60
2022-11-14T02:47:48.916Z,19.73
2022-11-14T02:50:16.056Z,20.38
2022-11-14T02:52:43.053Z,19.70
2022-11-14T02:55:10.595Z,20.30
2022-11-14T02:57:37.800Z,26.27
2022-11-14T03:00:09.946Z,19.80
2022-11-14T03:02:40.542Z,19.48
2022-11-14T03:05:07.750Z,18.83
2022-11-14T03:07:34.793Z,17.65
2022-11-14T03:10:02.219Z,18.20
2022-11-14T03:12:29.263Z,20.60
2022-11-14T03:14:56.279Z,18.88
2022-11-14T03:17:24.563Z,18.17
2022-11-14T03:19:51.766Z,17.13
2022-11-14T03:22:18.723Z,18.33
2022-11-14T03:24:45.722Z,19.10
2022-11-14T03:27:12.710Z,24.92
2022-11-14T03:29:39.768Z,23.98
2022-11-14T03:32:06.796Z,18.40
2022-11-14T03:34:33.799Z,19.80
2022-11-14T03:37:00.819Z,20.30
2022-11-14T03:39:28.223Z,18.08
2022-11-14T03:41:55.238Z,25.92
2022-11-14T03:44:22.609Z,17.85
2022-11-14T03:46:49.700Z,15.40
2022-11-14T03:49:16.707Z,19.45
2022-11-14T03:51:43.726Z,27.83
2022-11-14T03:54:10.709Z,19.58
2022-11-14T03:56:37.699Z,26.77
2022-11-14T03:59:04.706Z,16.65
2022-11-14T04:01:31.700Z,21.35
2022-11-14T04:03:58.740Z,19.73
2022-11-14T04:06:25.744Z,18.48
2022-11-14T04:08:52.810Z,23.70
2022-11-14T04:11:20.032Z,18.25
2022-11-14T04:13:47.012Z,20.38
2022-11-14T04:16:14.018Z,21.15
2022-11-14T04:18:41.031Z,27.98
2022-11-14T04:21:08.032Z,18.20
2022-11-14T04:23:35.100Z,16.50
2022-11-14T04:26:02.129Z,21.50
2022-11-14T04:28:29.381Z,17.42
2022-11-14T04:30:56.618Z,18.77
2022-11-14T04:33:23.636Z,16.83
2022-11-14T04:35:50.683Z,17.50
2022-11-14T04:38:17.690Z,20.17
2022-11-14T04:40:51.644Z,23.48
2022-11-14T04:43:18.896Z,19.60
2022-11-14T04:45:46.010Z,19.73
2022-11-14T04:48:13.600Z,18.63
2022-11-14T04:50:40.591Z,17.95
2022-11-14T04:53:07.622Z,20.67
2022-11-14T04:55:34.629Z,17.63
2022-11-14T04:58:02.466Z,18.70
2022-11-14T05:00:29.590Z,20.20
2022-11-14T05:02:58.816Z,16.67
2022-11-14T05:05:25.836Z,29.77
2022-11-14T05:07:52.887Z,18.30
2022-11-14T05:12:54.934Z,27.58
2022-11-14T05:15:22.506Z,18.25
2022-11-14T05:17:49.519Z,22.70
2022-11-14T05:20:16.639Z,19.40
2022-11-14T05:22:43.674Z,19.88
2022-11-14T05:25:11.276Z,17.95
2022-11-14T05:27:38.403Z,18.88
2022-11-14T05:30:05.568Z,20.88
2022-11-14T05:32:32.606Z,19.13
2022-11-14T05:34:59.572Z,19.13
2022-11-14T05:37:26.575Z,18.52
2022-11-14T05:39:53.670Z,17.33
2022-11-14T05:42:20.739Z,18.63
2022-11-14T05:44:47.828Z,21.33
2022-11-14T05:47:14.863Z,19.95
2022-11-14T05:49:41.956Z,18.85
2022-11-14T05:52:08.983Z,24.80
2022-11-14T05:54:36.004Z,18.17
2022-11-14T05:57:03.048Z,19.38
2022-11-14T05:59:30.068Z,20.08
2022-11-14T06:01:57.188Z,23.17
2022-11-14T06:04:24.253Z,16.73
2022-11-14T06:06:51.297Z,19.00
2022-11-14T06:09:18.689Z,20.63
2022-11-14T06:11:45.693Z,15.52
2022-11-14T06:14:12.759Z,17.20
2022-11-14T06:16:39.770Z,16.40
2022-11-14T06:19:06.768Z,19.55
2022-11-14T06:21:33.993Z,15.70
2022-11-14T06:24:01.156Z,16.23
2022-11-14T06:26:32.660Z,16.25
2022-11-14T06:29:00.505Z,17.33
2022-11-14T06:31:27.800Z,17.10
2022-11-14T06:33:54.879Z,17.73
2022-11-14T06:36:21.931Z,18.67
2022-11-14T06:38:48.972Z,16.42
2022-11-14T06:41:15.960Z,17.92
2022-11-14T06:43:44.413Z,17.05
2022-11-14T06:46:12.353Z,16.88
2022-11-14T06:48:39.704Z,17.20
2022-11-14T06:51:07.644Z,14.85
2022-11-14T06:53:36.265Z,17.25
2022-11-14T06:56:05.141Z,17.15
2022-11-14T06:58:34.048Z,14.77
2022-11-14T07:01:05.397Z,14.30
2022-11-14T07:03:32.801Z,13.88
2022-11-14T07:06:02.963Z,13.63
2022-11-14T07:08:30.139Z,14.73
2022-11-14T07:11:07.791Z,15.85
2022-11-14T07:13:35.386Z,14.63
2022-11-14T07:16:02.839Z,15.43
2022-11-14T07:18:33.976Z,12.95
2022-11-14T07:21:02.132Z,16.40
2022-11-14T07:23:29.599Z,13.23
2022-11-14T07:25:56.617Z,14.90
2022-11-14T07:28:23.636Z,14.68
2022-11-14T07:30:50.688Z,12.38
2022-11-14T07:33:17.723Z,15.80
2022-11-14T07:35:44.759Z,13.43
2022-11-14T07:38:11.850Z,13.55
2022-11-14T07:40:38.851Z,18.08
2022-11-14T07:43:05.971Z,15.00
2022-11-14T07:45:33.007Z,13.73
2022-11-14T07:48:01.183Z,13.07
2022-11-14T07:50:29.606Z,13.10
2022-11-14T07:52:57.561Z,15.07
2022-11-14T07:55:24.819Z,14.13
2022-11-14T07:57:55.164Z,13.85
2022-11-14T08:00:22.446Z,14.13
2022-11-14T08:02:49.493Z,15.93
2022-11-14T08:05:16.949Z,22.13
2022-11-14T08:07:44.613Z,14.43
2022-11-14T08:10:13.455Z,14.85
2022-11-14T08:12:41.268Z,11.93
2022-11-14T08:15:09.071Z,14.70
2022-11-14T08:17:36.136Z,14.60
2022-11-14T08:20:03.402Z,13.68
2022-11-14T08:22:31.090Z,14.80
2022-11-14T08:24:58.520Z,16.08
2022-11-14T08:27:25.745Z,12.98
2022-11-14T08:29:52.862Z,13.57
2022-11-14T08:32:20.247Z,14.35
2022-11-14T08:34:47.245Z,11.38
2022-11-14T08:37:14.362Z,10.77
2022-11-14T08:39:41.409Z,13.63
2022-11-14T08:42:08.447Z,13.05
2022-11-14T08:44:35.467Z,12.90
2022-11-14T08:47:03.741Z,11.25
2022-11-14T08:49:30.820Z,14.05
2022-11-14T08:51:57.832Z,11.75
2022-11-14T08:54:24.995Z,14.13
2022-11-14T08:56:52.026Z,16.55
2022-11-14T08:59:19.187Z,18.15
2022-11-14T09:01:46.297Z,18.70
2022-11-14T09:04:13.386Z,19.27
2022-11-14T09:06:40.516Z,18.98
2022-11-14T09:09:07.507Z,18.80
2022-11-14T09:11:35.268Z,18.80
2022-11-14T09:14:02.712Z,17.00
2022-11-14T09:16:29.730Z,18.90
2022-11-14T09:18:56.766Z,22.08
2022-11-14T09:21:23.830Z,22.85
2022-11-14T09:23:50.873Z,19.38
2022-11-14T09:26:18.683Z,18.50
2022-11-14T09:28:45.804Z,18.15
2022-11-14T09:31:13.673Z,17.42
2022-11-14T09:33:40.892Z,18.13
2022-11-14T09:36:09.711Z,18.27
2022-11-14T09:38:38.695Z,19.27
2022-11-14T09:41:06.035Z,18.73
2022-11-14T09:43:48.147Z,19.27
2022-11-14T09:46:20.782Z,25.90
2022-11-14T09:48:48.266Z,19.08
2022-11-14T09:51:20.811Z,19.00
2022-11-14T09:53:50.817Z,19.92
2022-11-14T09:56:20.941Z,26.23
2022-11-14T09:58:47.962Z,22.13
2022-11-14T10:01:36.140Z,19.58
2022-11-14T10:04:10.839Z,21.50
2022-11-14T10:06:47.508Z,23.33
2022-11-14T10:09:21.507Z,24.88
2022-11-14T10:11:56.522Z,18.98
2022-11-14T10:14:31.086Z,18.77
2022-11-14T10:17:16.892Z,21.13
2022-11-14T10:20:03.542Z,19.02
2022-11-14T10:23:01.130Z,20.83
2022-11-14T10:25:43.792Z,19.98
2022-11-14T10:28:11.283Z,22.13
2022-11-14T10:30:47.435Z,18.88
2022-11-14T10:33:21.171Z,19.23
2022-11-14T10:36:07.175Z,24.60
2022-11-14T10:38:37.533Z,20.40
2022-11-14T10:41:15.917Z,20.38
2022-11-14T10:43:51.557Z,17.92
2022-11-14T10:46:23.488Z,20.73
2022-11-14T10:48:54.002Z,19.15
2022-11-14T10:51:40.743Z,19.50
2022-11-14T10:54:10.596Z,18.25
2022-11-14T10:56:50.833Z,20.15
2022-11-14T10:59:18.086Z,19.27
2022-11-14T11:01:46.550Z,20.50
2022-11-14T11:04:24.356Z,19.27
2022-11-14T11:06:52.830Z,23.70
2022-11-14T11:09:45.068Z,18.90
2022-11-14T11:12:20.370Z,20.95
2022-11-14T11:14:48.351Z,19.55
2022-11-14T11:17:21.149Z,18.80
2022-11-14T11:19:49.061Z,20.90
2022-11-14T11:22:27.146Z,18.27
2022-11-14T11:24:54.310Z,17.52
2022-11-14T11:27:22.642Z,19.30
2022-11-14T11:30:04.823Z,16.42
2022-11-14T11:32:31.995Z,17.65
2022-11-14T11:34:59.818Z,17.80
2022-11-14T11:37:47.159Z,16.42
2022-11-14T11:40:16.900Z,15.23
2022-11-14T11:43:36.849Z,16.10
2022-11-14T11:45:40.420Z,20.48
2022-11-14T11:48:20.317Z,14.07
2022-11-14T11:50:48.138Z,13.38
2022-11-14T11:53:34.839Z,10.95
2022-11-14T11:56:05.259Z,13.05
2022-11-14T11:58:36.348Z,12.05
2022-11-14T12:01:03.408Z,13.25
2022-11-14T12:03:30.859Z,12.20
2022-11-14T12:06:06.917Z,11.63
2022-11-14T12:08:59.319Z,14.90
2022-11-14T12:11:27.738Z,13.30
2022-11-14T12:14:13.564Z,12.85
2022-11-14T12:16:59.075Z,12.13
2022-11-14T12:19:41.137Z,12.20
2022-11-14T12:22:17.311Z,11.85
2022-11-14T12:25:02.955Z,15.20
2022-11-14T12:27:36.004Z,12.23
2022-11-14T12:30:17.844Z,14.20
2022-11-14T12:32:48.435Z,11.35
2022-11-14T12:35:19.241Z,12.90
2022-11-14T12:37:52.714Z,10.02
2022-11-14T12:40:27.369Z,9.55
2022-11-14T12:42:54.479Z,9.43
2022-11-14T12:45:36.879Z,9.02
2022-11-14T12:48:21.315Z,6.53
2022-11-14T12:50:48.447Z,7.45
2022-11-14T12:53:36.544Z,10.88
2022-11-14T12:56:15.742Z,7.65
2022-11-14T12:58:48.116Z,8.02
2022-11-14T13:01:15.131Z,10.02
2022-11-14T13:03:51.307Z,6.75
2022-11-14T13:06:38.989Z,5.57
2022-11-14T13:09:18.922Z,8.80
2022-11-14T13:12:05.531Z,9.23
2022-11-14T13:14:51.619Z,9.70
2022-11-14T13:17:37.444Z,12.07
2022-11-14T13:20:43.375Z,10.38
2022-11-14T13:23:28.774Z,10.07
2022-11-14T13:26:11.112Z,8.32
2022-11-14T13:28:38.215Z,11.15
2022-11-14T13:31:17.506Z,9.85
2022-11-14T13:33:52.620Z,8.15
2022-11-14T13:36:34.863Z,7.10
2022-11-14T13:39:10.761Z,10.88
2022-11-14T13:41:47.893Z,10.95
2022-11-14T13:44:39.673Z,10.68
2022-11-14T13:47:20.180Z,8.82
2022-11-14T13:49:57.755Z,8.60
2022-11-14T13:52:28.293Z,8.65
2022-11-14T13:54:55.442Z,8.25
2022-11-14T13:57:22.424Z,8.55
2022-11-14T14:00:02.494Z,10.85
2022-11-14T14:02:36.037Z,9.80
2022-11-14T14:05:21.846Z,9.43
2022-11-14T14:08:07.621Z,10.40
2022-11-14T14:10:43.139Z,9.95
2022-11-14T14:13:25.461Z,9.75
2022-11-14T14:16:02.731Z,8.55
2022-11-14T14:18:32.983Z,8.98
2022-11-14T14:21:11.396Z,8.52
2022-11-14T14:23:44.457Z,11.38
2022-11-14T14:26:19.841Z,7.90
2022-11-14T14:28:56.281Z,8.68
2022-11-14T14:31:23.368Z,9.02
2022-11-14T14:33:51.338Z,8.73
2022-11-14T14:36:22.877Z,9.40
2022-11-14T14:38:50.731Z,10.93
2022-11-14T14:41:18.915Z,11.82
2022-11-14T14:43:54.229Z,13.88
2022-11-14T14:46:28.758Z,8.55
2022-11-14T14:48:56.012Z,11.30
2022-11-14T14:51:33.521Z,9.45
2022-11-14T14:54:00.593Z,9.57
2022-11-14T14:56:28.623Z,10.88
2022-11-14T14:58:56.085Z,12.15
2022-11-14T15:01:26.036Z,14.95
2022-11-14T15:03:58.394Z,12.02
2022-11-14T15:06:30.497Z,12.27
2022-11-14T15:08:58.439Z,13.35
2022-11-14T15:11:29.935Z,12.20
2022-11-14T15:14:00.020Z,10.82
2022-11-14T15:16:27.212Z,14.10
2022-11-14T15:18:55.212Z,9.38
2022-11-14T15:21:25.145Z,12.18
2022-11-14T15:23:59.214Z,11.50
2022-11-14T15:26:26.489Z,11.20
2022-11-14T15:28:53.527Z,13.27
2022-11-14T15:31:21.541Z,12.30
2022-11-14T15:34:02.275Z,12.27
2022-11-14T15:36:29.340Z,14.48
2022-11-14T15:39:04.498Z,19.40
2022-11-14T15:41:32.437Z,14.50
2022-11-14T15:44:02.183Z,14.80
2022-11-14T15:46:35.718Z,19.75
2022-11-14T15:49:08.430Z,13.13
2022-11-14T15:51:46.560Z,18.92
2022-11-14T15:54:22.450Z,12.88
2022-11-14T15:56:49.521Z,12.88
2022-11-14T15:59:16.546Z,16.50
2022-11-14T16:01:44.808Z,15.40
2022-11-14T16:04:16.901Z,19.83
2022-11-14T16:06:44.042Z,15.02
2022-11-14T16:09:15.225Z,17.15
2022-11-14T16:11:42.478Z,16.23
2022-11-14T16:14:09.507Z,25.90
2022-11-14T16:16:36.570Z,15.57
2022-11-14T16:19:03.781Z,15.20
2022-11-14T16:21:30.772Z,14.32
2022-11-14T16:23:57.958Z,14.52
2022-11-14T16:26:26.270Z,15.73
2022-11-14T16:28:53.748Z,18.67
2022-11-14T16:31:20.811Z,14.80
2022-11-14T16:33:47.821Z,17.02
2022-11-14T16:36:14.858Z,17.00
2022-11-14T16:38:41.841Z,16.92
2022-11-14T16:41:09.764Z,15.77
2022-11-14T16:43:36.803Z,18.92
2022-11-14T16:46:05.163Z,328.42
2022-11-14T16:48:32.194Z,217.98
2022-11-14T16:51:14.814Z,96.32
2022-11-14T16:53:42.135Z,1999.90
2022-11-14T16:56:11.341Z,632.22
2022-11-14T16:58:39.835Z,1892.78
2022-11-14T17:01:12.911Z,1999.90
2022-11-14T17:03:41.507Z,690.30
2022-11-14T17:06:10.114Z,868.25
2022-11-14T17:08:37.367Z,572.85
2022-11-14T17:11:08.814Z,771.17
2022-11-14T17:13:36.645Z,671.88
2022-11-14T17:16:04.281Z,653.22
2022-11-14T17:18:35.686Z,592.13
2022-11-14T17:21:06.413Z,482.27
2022-11-14T17:23:33.437Z,332.88
2022-11-14T17:26:07.459Z,223.77
2022-11-14T17:28:34.643Z,154.52
2022-11-14T17:31:06.174Z,169.50
2022-11-14T17:33:33.432Z,180.98
2022-11-14T17:36:05.107Z,233.30
2022-11-14T17:38:32.858Z,286.50
2022-11-14T17:40:59.919Z,348.27
2022-11-14T17:43:27.210Z,403.70
2022-11-14T17:45:55.184Z,429.08
2022-11-14T17:48:22.297Z,443.38
2022-11-14T17:50:49.351Z,467.60
2022-11-14T17:53:16.394Z,487.50
2022-11-14T17:55:44.563Z,471.55
2022-11-14T17:58:12.070Z,497.67
2022-11-14T18:00:39.439Z,521.85
2022-11-14T18:03:06.419Z,532.03
2022-11-14T18:05:33.473Z,531.88
2022-11-14T18:08:00.518Z,540.63
2022-11-14T18:10:27.517Z,542.70
2022-11-14T18:12:54.543Z,557.08
2022-11-14T18:15:26.594Z,548.95
2022-11-14T18:17:54.873Z,397.65
2022-11-14T18:20:21.917Z,530.47
2022-11-14T18:22:49.005Z,539.42
2022-11-14T18:25:16.088Z,543.35
2022-11-14T18:27:43.375Z,529.58
2022-11-14T18:30:34.629Z,523.25
2022-11-14T18:32:58.834Z,496.15
2022-11-14T18:35:25.841Z,508.40
2022-11-14T18:37:52.890Z,530.90
2022-11-14T18:40:21.516Z,521.70
2022-11-14T18:42:48.602Z,505.70
2022-11-14T18:45:15.601Z,493.88
2022-11-14T18:47:42.621Z,495.83
2022-11-14T18:50:09.708Z,490.27
2022-11-14T18:52:37.196Z,510.45
2022-11-14T18:55:04.884Z,549.38
2022-11-14T18:57:31.924Z,545.33
2022-11-14T18:59:58.932Z,543.72
2022-11-14T19:02:26.028Z,541.03
2022-11-14T19:04:53.208Z,535.90
2022-11-14T19:07:20.264Z,527.83
2022-11-14T19:09:47.331Z,537.95
2022-11-14T19:12:23.919Z,528.95
2022-11-14T19:14:51.607Z,521.97
2022-11-14T19:17:20.973Z,514.08
2022-11-14T19:19:49.345Z,482.80
2022-11-14T19:22:17.133Z,486.88
2022-11-14T19:24:47.076Z,478.80
2022-11-14T19:27:14.695Z,507.77
2022-11-14T19:29:41.708Z,493.35
2022-11-14T19:32:08.736Z,462.33
2022-11-14T19:34:35.944Z,436.27
2022-11-14T19:37:03.015Z,406.13
2022-11-14T19:39:30.148Z,378.65
2022-11-14T19:41:57.367Z,355.13
2022-11-14T19:44:24.411Z,348.58
2022-11-14T19:46:51.412Z,341.67
2022-11-14T19:49:18.403Z,322.35
2022-11-14T19:51:45.402Z,306.08
2022-11-14T19:54:12.509Z,258.60
2022-11-14T19:56:39.590Z,251.88
2022-11-14T19:59:13.817Z,245.23
2022-11-14T20:01:42.184Z,208.02
2022-11-14T20:04:11.727Z,192.52
2022-11-14T20:06:38.804Z,172.90
2022-11-14T20:09:07.363Z,155.45
2022-11-14T20:11:34.611Z,153.15
2022-11-14T20:14:02.697Z,146.98
2022-11-14T20:16:31.679Z,137.20
2022-11-14T20:19:00.498Z,108.35
2022-11-14T20:21:28.029Z,96.35
2022-11-14T20:23:55.104Z,86.90
2022-11-14T20:26:22.687Z,72.72
2022-11-14T20:28:52.026Z,134.82
2022-11-14T20:31:20.971Z,180.48
2022-11-14T20:33:48.988Z,237.95
2022-11-14T20:36:21.208Z,293.77
2022-11-14T20:38:48.358Z,127.53
2022-11-14T20:41:15.555Z,166.07
2022-11-14T20:43:43.164Z,182.57
2022-11-14T20:46:14.861Z,205.27
2022-11-14T20:48:42.386Z,106.35
2022-11-14T20:51:11.556Z,126.20
2022-11-14T20:53:38.994Z,178.20
2022-11-14T20:56:06.139Z,200.32
2022-11-14T20:58:33.491Z,235.30
2022-11-14T21:01:00.862Z,261.90
2022-11-14T21:03:28.337Z,322.00
2022-11-14T21:05:56.466Z,380.00
2022-11-14T21:08:23.492Z,441.77
2022-11-14T21:10:53.101Z,476.58
2022-11-14T21:13:39.641Z,538.15
2022-11-14T21:16:11.105Z,573.03
2022-11-14T21:18:39.425Z,426.30
2022-11-14T21:21:09.005Z,424.70
2022-11-14T21:23:36.948Z,481.30
2022-11-14T21:26:04.032Z,489.15
2022-11-14T21:28:32.155Z,517.88
2022-11-14T21:31:00.695Z,554.83
2022-11-14T21:33:29.088Z,547.90
2022-11-14T21:36:07.296Z,570.42
2022-11-14T21:38:43.555Z,594.65
2022-11-14T21:41:15.524Z,597.70
2022-11-14T21:43:42.816Z,591.70
2022-11-14T21:46:10.384Z,583.60
2022-11-14T21:48:41.617Z,595.13
2022-11-14T21:51:12.973Z,607.38
2022-11-14T21:53:40.449Z,607.85
2022-11-14T21:56:15.198Z,610.58
2022-11-14T21:58:42.396Z,603.80
2022-11-14T22:01:36.877Z,614.53
2022-11-14T22:04:13.624Z,618.83
2022-11-14T22:06:43.987Z,627.60
2022-11-14T22:09:11.279Z,625.30
2022-11-14T22:11:38.690Z,615.92
2022-11-14T22:14:06.053Z,623.00
2022-11-14T22:16:33.388Z,618.30
2022-11-14T22:19:05.247Z,632.40
2022-11-14T22:21:32.781Z,631.20
2022-11-14T22:23:59.871Z,632.78
2022-11-14T22:26:26.868Z,617.58
2022-11-14T22:28:53.876Z,625.83
2022-11-14T22:31:22.623Z,622.80
2022-11-14T22:33:50.587Z,638.50
2022-11-14T22:36:18.602Z,640.63
2022-11-14T22:38:46.149Z,638.47
2022-11-14T22:41:14.676Z,642.88
2022-11-14T22:43:42.068Z,656.13
2022-11-14T22:46:10.838Z,650.40
2022-11-14T22:48:37.949Z,647.38
2022-11-14T22:51:06.907Z,658.70
2022-11-14T22:53:34.611Z,657.75
2022-11-14T22:56:02.297Z,659.20
2022-11-14T22:58:33.158Z,647.00
2022-11-14T23:01:00.316Z,643.28
2022-11-14T23:03:28.520Z,639.40
2022-11-14T23:05:55.546Z,632.45
2022-11-14T23:08:22.589Z,632.10
2022-11-14T23:10:49.672Z,620.28
2022-11-14T23:13:16.647Z,615.83
2022-11-14T23:15:47.077Z,610.33
2022-11-14T23:18:14.799Z,611.08
2022-11-14T23:20:41.828Z,611.15
2022-11-14T23:23:08.854Z,598.72
2022-11-14T23:25:37.002Z,605.40
2022-11-14T23:28:04.087Z,609.85
2022-11-14T23:30:31.093Z,603.72
2022-11-14T23:32:58.093Z,603.25
2022-11-14T23:35:25.130Z,600.58
2022-11-14T23:37:52.184Z,598.95
2022-11-14T23:40:19.263Z,603.20
2022-11-14T23:42:46.373Z,607.60
2022-11-14T23:45:13.545Z,596.78
2022-11-14T23:47:40.575Z,592.92
2022-11-14T23:50:07.660Z,592.13
2022-11-14T23:52:34.770Z,585.33
2022-11-14T23:55:02.645Z,588.65
2022-11-14T23:57:29.844Z,577.35
2022-11-14T23:59:56.863Z,580.88
